createdAt,value
2022-10-30T00:01:04.040Z,8.28
2022-10-30T00:06:08.478Z,8.22
2022-10-30T00:11:13.566Z,8.14
2022-10-30T00:16:17.573Z,8.09
2022-10-30T00:21:21.167Z,8.00
2022-10-30T00:26:25.859Z,7.93
2022-10-30T00:31:29.854Z,7.94
2022-10-30T00:36:33.514Z,7.93
2022-10-30T00:41:39.724Z,7.89
2022-10-30T00:46:43.100Z,7.83
2022-10-30T00:51:50.987Z,7.70
2022-10-30T00:56:54.982Z,7.61
2022-10-30T01:02:01.943Z,7.48
2022-10-30T01:07:13.120Z,7.51
2022-10-30T01:12:17.344Z,7.43
2022-10-30T01:17:54.984Z,7.41
2022-10-30T01:23:21.751Z,7.31
2022-10-30T01:28:44.052Z,7.29
2022-10-30T01:34:11.600Z,7.17
2022-10-30T01:39:20.151Z,7.02
2022-10-30T01:44:33.554Z,7.01
2022-10-30T01:49:48.568Z,6.98
2022-10-30T01:55:14.663Z,6.89
2022-10-30T02:00:20.682Z,7.30
2022-10-30T02:05:41.442Z,7.68
2022-10-30T02:10:47.759Z,7.92
2022-10-30T02:15:51.604Z,8.06
2022-10-30T02:20:55.671Z,8.16
2022-10-30T02:25:59.336Z,8.13
2022-10-30T02:31:04.041Z,8.09
2022-10-30T02:36:07.502Z,7.92
2022-10-30T02:41:12.173Z,7.81
2022-10-30T02:46:15.773Z,7.68
2022-10-30T02:51:18.768Z,7.51
2022-10-30T02:56:21.985Z,7.37
2022-10-30T03:01:25.758Z,7.21
2022-10-30T03:06:33.486Z,7.10
2022-10-30T03:11:37.220Z,7.00
2022-10-30T03:16:40.726Z,6.94
2022-10-30T03:21:43.883Z,6.83
2022-10-30T03:26:48.942Z,6.69
2022-10-30T03:31:52.444Z,6.68
2022-10-30T03:36:57.152Z,6.68
2022-10-30T03:42:00.119Z,6.67
2022-10-30T03:47:04.006Z,6.55
2022-10-30T03:52:15.633Z,6.62
2022-10-30T03:57:19.121Z,6.62
2022-10-30T04:02:44.746Z,6.81
2022-10-30T04:07:48.892Z,6.85
2022-10-30T04:12:53.139Z,6.86
2022-10-30T04:17:57.588Z,6.80
2022-10-30T04:23:04.488Z,6.81
2022-10-30T04:28:09.301Z,6.81
2022-10-30T04:33:15.147Z,6.79
2022-10-30T04:38:19.879Z,6.67
2022-10-30T04:43:24.043Z,6.83
2022-10-30T04:48:29.466Z,6.92
2022-10-30T04:53:32.794Z,6.91
2022-10-30T04:58:41.753Z,6.95
2022-10-30T05:03:49.279Z,6.87
2022-10-30T05:08:57.069Z,6.87
2022-10-30T05:14:20.308Z,6.79
2022-10-30T05:19:24.055Z,6.83
2022-10-30T05:24:33.077Z,6.86
2022-10-30T05:29:37.110Z,7.00
2022-10-30T05:34:40.691Z,7.14
2022-10-30T05:39:44.882Z,7.57
2022-10-30T05:45:01.395Z,7.38
2022-10-30T05:50:08.838Z,7.54
2022-10-30T05:55:12.645Z,7.79
2022-10-30T06:00:36.630Z,8.15
2022-10-30T06:05:40.018Z,8.61
2022-10-30T06:10:43.723Z,8.89
2022-10-30T06:15:58.516Z,9.43
2022-10-30T06:21:10.043Z,14.96
2022-10-30T06:26:31.714Z,19.48
2022-10-30T06:31:41.136Z,21.54
2022-10-30T06:36:44.556Z,22.96
2022-10-30T06:41:48.605Z,24.59
2022-10-30T06:47:04.115Z,25.77
2022-10-30T06:52:07.368Z,26.35
2022-10-30T06:57:10.442Z,25.23
2022-10-30T07:02:22.241Z,25.73
2022-10-30T07:07:32.624Z,27.99
2022-10-30T07:12:37.209Z,28.31
2022-10-30T07:17:57.581Z,29.22
2022-10-30T07:23:02.070Z,28.76
2022-10-30T07:28:05.505Z,27.90
2022-10-30T07:33:32.036Z,29.14
2022-10-30T07:39:01.533Z,29.77
2022-10-30T07:44:11.935Z,27.86
2022-10-30T07:49:23.191Z,28.14
2022-10-30T07:54:30.768Z,28.13
2022-10-30T07:59:42.211Z,27.41
2022-10-30T08:04:57.041Z,25.96
2022-10-30T08:10:20.421Z,25.71
2022-10-30T08:15:24.172Z,27.00
2022-10-30T08:20:27.962Z,28.34
2022-10-30T08:25:32.655Z,30.07
2022-10-30T08:30:37.811Z,29.40
2022-10-30T08:35:53.734Z,29.87
2022-10-30T08:40:56.887Z,28.02
2022-10-30T08:46:00.864Z,28.83
2022-10-30T08:51:04.531Z,30.08
2022-10-30T08:56:12.411Z,29.92
2022-10-30T09:01:26.236Z,29.56
2022-10-30T09:06:48.740Z,29.08
2022-10-30T09:12:12.584Z,27.92
2022-10-30T09:17:20.376Z,27.06
2022-10-30T09:22:24.301Z,26.41
2022-10-30T09:27:29.081Z,26.64
2022-10-30T09:32:35.801Z,26.37
2022-10-30T09:37:46.298Z,27.98
2022-10-30T09:42:57.316Z,26.95
2022-10-30T09:48:22.467Z,27.79
2022-10-30T09:54:03.563Z,27.08
2022-10-30T09:59:18.681Z,26.93
2022-10-30T10:04:44.475Z,27.01
2022-10-30T10:09:52.458Z,26.19
2022-10-30T10:15:26.459Z,26.27
2022-10-30T10:20:42.093Z,26.19
2022-10-30T10:25:54.100Z,26.19
2022-10-30T10:31:03.773Z,24.93
2022-10-30T10:36:54.939Z,24.17
2022-10-30T10:42:24.977Z,23.50
2022-10-30T10:48:01.699Z,23.26
2022-10-30T10:53:11.658Z,23.75
2022-10-30T10:58:36.793Z,23.57
2022-10-30T11:04:01.829Z,23.65
2022-10-30T11:09:24.854Z,23.87
2022-10-30T11:14:31.726Z,23.38
2022-10-30T11:19:35.181Z,23.47
2022-10-30T11:24:38.702Z,22.95
2022-10-30T11:29:49.506Z,23.38
2022-10-30T11:35:11.081Z,23.48
2022-10-30T11:40:15.218Z,22.78
2022-10-30T11:45:26.114Z,23.44
2022-10-30T11:50:33.379Z,23.59
2022-10-30T11:55:42.173Z,23.67
2022-10-30T12:00:45.905Z,23.81
2022-10-30T12:05:50.364Z,25.13
2022-10-30T12:10:53.500Z,24.96
2022-10-30T12:16:13.189Z,24.85
2022-10-30T12:21:20.587Z,24.99
2022-10-30T12:26:25.565Z,24.82
2022-10-30T12:31:35.520Z,25.14
2022-10-30T12:37:04.259Z,23.94
2022-10-30T12:42:17.159Z,23.90
2022-10-30T12:47:41.384Z,24.53
2022-10-30T12:52:54.140Z,24.58
2022-10-30T12:58:15.668Z,25.49
2022-10-30T13:03:33.210Z,25.72
2022-10-30T13:09:23.608Z,25.82
2022-10-30T13:14:54.505Z,25.30
2022-10-30T13:19:58.362Z,25.51
2022-10-30T13:25:30.369Z,25.68
2022-10-30T13:30:45.968Z,25.22
2022-10-30T13:36:21.518Z,25.03
2022-10-30T13:41:46.339Z,26.34
2022-10-30T13:47:04.518Z,26.32
2022-10-30T13:52:18.035Z,25.05
2022-10-30T13:57:35.263Z,26.28
2022-10-30T14:02:48.192Z,26.57
2022-10-30T14:08:06.366Z,27.02
2022-10-30T14:13:28.849Z,26.62
2022-10-30T14:18:45.855Z,26.10
2022-10-30T14:23:48.959Z,25.23
2022-10-30T14:28:55.607Z,25.40
2022-10-30T14:33:58.690Z,25.92
2022-10-30T14:39:28.527Z,25.10
2022-10-30T14:44:56.266Z,24.42
2022-10-30T14:50:16.022Z,24.37
2022-10-30T14:55:31.946Z,22.99
2022-10-30T15:00:43.260Z,22.21
2022-10-30T15:05:49.376Z,21.90
2022-10-30T15:11:10.121Z,20.23
2022-10-30T15:16:18.244Z,19.27
2022-10-30T15:21:25.819Z,18.73
2022-10-30T15:26:40.701Z,18.36
2022-10-30T15:31:44.311Z,18.31
2022-10-30T15:36:47.650Z,17.74
2022-10-30T15:41:57.874Z,17.20
2022-10-30T15:47:04.511Z,16.82
2022-10-30T15:52:26.921Z,16.55
2022-10-30T15:58:02.836Z,15.95
2022-10-30T16:03:03.829Z,15.43
2022-10-30T16:08:17.110Z,15.06
2022-10-30T16:13:25.627Z,14.84
2022-10-30T16:18:32.382Z,14.58
2022-10-30T16:23:55.443Z,14.44
2022-10-30T16:29:14.174Z,14.18
2022-10-30T16:34:32.183Z,13.74
2022-10-30T16:39:38.482Z,13.62
2022-10-30T16:44:41.515Z,13.35
2022-10-30T16:49:58.084Z,13.07
2022-10-30T16:55:06.228Z,12.84
2022-10-30T17:00:35.447Z,12.70
2022-10-30T17:05:43.850Z,12.48
2022-10-30T17:11:00.207Z,12.35
2022-10-30T17:16:25.534Z,12.18
2022-10-30T17:21:41.295Z,12.03
2022-10-30T17:26:56.653Z,11.84
2022-10-30T17:32:00.554Z,11.67
2022-10-30T17:37:04.782Z,11.62
2022-10-30T17:42:10.052Z,11.50
2022-10-30T17:47:19.710Z,11.46
2022-10-30T17:52:22.747Z,11.37
2022-10-30T17:57:27.322Z,11.27
2022-10-30T18:02:30.700Z,11.15
2022-10-30T18:07:33.982Z,11.21
2022-10-30T18:12:37.709Z,10.97
2022-10-30T18:17:41.018Z,10.66
2022-10-30T18:22:44.718Z,10.63
2022-10-30T18:27:47.846Z,10.52
2022-10-30T18:32:51.470Z,10.45
2022-10-30T18:37:55.674Z,10.33
2022-10-30T18:43:00.182Z,10.29
2022-10-30T18:48:04.841Z,9.91
2022-10-30T18:53:18.107Z,10.19
2022-10-30T18:58:21.313Z,10.18
2022-10-30T19:03:25.479Z,10.21
2022-10-30T19:08:28.588Z,10.30
2022-10-30T19:13:32.066Z,10.14
2022-10-30T19:18:37.214Z,10.12
2022-10-30T19:23:40.649Z,10.01
2022-10-30T19:28:45.257Z,9.96
2022-10-30T19:33:52.900Z,9.83
2022-10-30T19:39:05.777Z,9.84
2022-10-30T19:44:10.797Z,9.53
2022-10-30T19:49:21.258Z,9.49
2022-10-30T19:54:24.711Z,9.39
2022-10-30T19:59:29.254Z,9.30
2022-10-30T20:04:33.135Z,9.36
2022-10-30T20:09:37.349Z,9.38
2022-10-30T20:14:44.203Z,9.47
2022-10-30T20:19:47.819Z,9.53
2022-10-30T20:24:50.798Z,9.81
2022-10-30T20:29:53.891Z,10.06
2022-10-30T20:34:56.838Z,10.26
2022-10-30T20:40:00.436Z,10.21
2022-10-30T20:45:04.441Z,10.16
2022-10-30T20:50:08.504Z,10.27
2022-10-30T20:55:13.093Z,10.37
2022-10-30T21:00:19.245Z,10.37
2022-10-30T21:05:42.748Z,10.18
2022-10-30T21:10:48.829Z,10.24
2022-10-30T21:15:53.436Z,10.21
2022-10-30T21:21:05.242Z,10.23
2022-10-30T21:26:11.200Z,10.17
2022-10-30T21:31:15.997Z,10.18
2022-10-30T21:36:20.305Z,10.14
2022-10-30T21:41:25.746Z,10.02
2022-10-30T21:46:31.401Z,9.89
2022-10-30T21:51:34.940Z,9.72
2022-10-30T21:56:38.123Z,9.70
2022-10-30T22:01:42.656Z,9.56
2022-10-30T22:06:46.108Z,9.42
2022-10-30T22:11:49.442Z,9.20
2022-10-30T22:16:52.929Z,9.23
2022-10-30T22:21:56.570Z,9.25
2022-10-30T22:26:59.854Z,9.22
2022-10-30T22:32:03.495Z,9.16
2022-10-30T22:37:06.571Z,9.15
2022-10-30T22:42:09.592Z,9.08
2022-10-30T22:47:12.627Z,9.18
2022-10-30T22:52:16.706Z,9.42
2022-10-30T22:57:19.799Z,9.49
2022-10-30T23:02:22.795Z,9.15
2022-10-30T23:07:26.433Z,8.81
2022-10-30T23:12:29.533Z,8.56
2022-10-30T23:17:32.951Z,8.38
2022-10-30T23:22:36.152Z,8.10
2022-10-30T23:27:40.237Z,7.89
2022-10-30T23:32:43.274Z,7.66
2022-10-30T23:37:46.313Z,7.55
2022-10-30T23:42:55.087Z,7.35
2022-10-30T23:47:59.260Z,7.11
2022-10-30T23:53:03.564Z,7.19
2022-10-30T23:58:07.446Z,7.10
